Time;durP1;ratioP1;P1;durP2;ratioP2;P2;SDS_P1;SDS_P2;PMS_P1;PMS_P2;Temp;Humidity;BMP_temperature;BMP_pressure;BME280_temperature;BME280_humidity;BME280_pressure;Samples;Min_cycle;Max_cycle;Signal;HPM_P1;HPM_P2
2023/07/25 00:02:25;;;;;;;4.18;1.20;;;;;;;;;;5013035;28;20054;-67
2023/07/25 00:04:52;;;;;;;4.05;1.40;;;;;;;;;;4986170;28;20119;-65
2023/07/25 00:07:19;;;;;;;4.32;1.30;;;;;;;;;;4987657;28;20066;-65
2023/07/25 00:09:45;;;;;;;4.15;1.20;;;;;;;;;;4972558;28;20126;-67
2023/07/25 00:12:13;;;;;;;4.30;1.13;;;;;;;;;;4956273;28;20066;-64
2023/07/25 00:14:41;;;;;;;3.53;1.38;;;;;;;;;;4932587;28;20055;-65
2023/07/25 00:17:07;;;;;;;3.15;1.52;;;;;;;;;;4944946;28;20054;-66
2023/07/25 00:19:34;;;;;;;2.58;1.30;;;;;;;;;;4977551;28;20069;-67
2023/07/25 00:22:01;;;;;;;5.32;1.55;;;;;;;;;;4977897;28;20046;-64
2023/07/25 00:24:28;;;;;;;9.98;1.50;;;;;;;;;;4976247;28;20046;-65
2023/07/25 00:26:55;;;;;;;3.65;1.30;;;;;;;;;;4976656;28;20050;-66
2023/07/25 00:29:23;;;;;;;9.55;1.58;;;;;;;;;;4979787;28;20175;-66
2023/07/25 00:31:50;;;;;;;6.05;1.60;;;;;;;;;;4980086;28;20046;-65
2023/07/25 00:34:16;;;;;;;7.43;2.70;;;;;;;;;;4979265;28;20508;-65
2023/07/25 00:36:43;;;;;;;9.95;2.70;;;;;;;;;;4973726;28;20593;-65
2023/07/25 00:39:10;;;;;;;11.93;6.20;;;;;;;;;;4976091;28;20050;-65
2023/07/25 00:41:37;;;;;;;48.65;28.75;;;;;;;;;;4979016;28;20104;-67
2023/07/25 00:44:04;;;;;;;14.40;7.15;;;;;;;;;;4979935;28;20065;-64
2023/07/25 00:46:32;;;;;;;9.88;3.58;;;;;;;;;;4974641;28;20058;-66
2023/07/25 00:48:59;;;;;;;5.20;1.70;;;;;;;;;;4974105;28;20050;-66
2023/07/25 00:51:26;;;;;;;7.05;1.52;;;;;;;;;;4978450;28;20058;-65
2023/07/25 00:53:53;;;;;;;3.10;1.30;;;;;;;;;;4977217;28;20066;-65
2023/07/25 00:56:20;;;;;;;6.43;1.48;;;;;;;;;;4981151;28;20069;-64
2023/07/25 00:58:48;;;;;;;10.20;2.03;;;;;;;;;;4966511;28;21153;-64
2023/07/25 01:01:14;;;;;;;11.30;5.50;;;;;;;;;;4980268;28;20061;-67
2023/07/25 01:03:43;;;;;;;37.90;22.30;;;;;;;;;;4994862;28;20057;-67
2023/07/25 01:06:13;;;;;;;13.68;8.13;;;;;;;;;;4998262;28;20054;-67
2023/07/25 01:08:48;;;;;;;7.38;3.00;;;;;;;;;;4981475;28;20062;-67
2023/07/25 01:11:15;;;;;;;4.10;1.55;;;;;;;;;;4996429;28;20059;-67
2023/07/25 01:13:41;;;;;;;4.68;1.45;;;;;;;;;;4982469;28;20468;-67
2023/07/25 01:16:13;;;;;;;5.15;1.40;;;;;;;;;;4980774;28;20135;-67
2023/07/25 01:18:42;;;;;;;5.20;1.40;;;;;;;;;;4959752;28;20054;-67
2023/07/25 01:21:08;;;;;;;;;;;;;;;;;;4977370;28;20126;-66
2023/07/25 01:23:37;;;;;;;4.07;1.48;;;;;;;;;;4978175;28;20006;-67
2023/07/25 01:26:06;;;;;;;;;;;;;;;;;;4976172;28;20057;-65
2023/07/25 01:28:33;;;;;;;7.03;1.45;;;;;;;;;;4968355;28;19921;-66
2023/07/25 01:31:03;;;;;;;3.58;1.38;;;;;;;;;;4979566;28;20057;-67
2023/07/25 01:33:30;;;;;;;6.35;1.50;;;;;;;;;;4979951;28;20162;-67
2023/07/25 01:36:00;;;;;;;5.60;1.48;;;;;;;;;;4979208;28;20049;-66
2023/07/25 01:38:28;;;;;;;5.90;1.60;;;;;;;;;;4964656;28;20098;-65
2023/07/25 01:40:55;;;;;;;7.00;1.50;;;;;;;;;;4976310;28;20135;-65
2023/07/25 01:43:25;;;;;;;6.60;1.73;;;;;;;;;;4979708;28;20095;-65
2023/07/25 01:45:52;;;;;;;6.03;1.70;;;;;;;;;;4978300;28;20058;-65
2023/07/25 01:48:19;;;;;;;5.53;1.50;;;;;;;;;;4977091;28;20084;-64
2023/07/25 01:50:46;;;;;;;4.88;1.70;;;;;;;;;;5004507;28;20318;-64
2023/07/25 01:53:15;;;;;;;3.85;1.45;;;;;;;;;;4980551;28;20190;-65
2023/07/25 01:55:45;;;;;;;6.90;1.60;;;;;;;;;;4981604;28;20065;-65
2023/07/25 01:58:11;;;;;;;4.30;1.42;;;;;;;;;;4964443;28;20054;-66
2023/07/25 02:00:39;;;;;;;8.20;1.83;;;;;;;;;;4970321;28;20057;-65
2023/07/25 02:03:08;;;;;;;3.67;1.50;;;;;;;;;;4990079;28;20367;-65
2023/07/25 02:05:37;;;;;;;4.95;1.70;;;;;;;;;;4961938;28;20137;-66
2023/07/25 02:08:07;;;;;;;4.63;1.65;;;;;;;;;;4975492;28;20148;-68
2023/07/25 02:10:41;;;;;;;5.18;1.85;;;;;;;;;;4972318;28;20705;-67
2023/07/25 02:13:14;;;;;;;5.32;1.50;;;;;;;;;;4978940;28;20070;-67
2023/07/25 02:15:59;;;;;;;4.38;1.67;;;;;;;;;;4974908;28;20225;-66
2023/07/25 02:18:26;;;;;;;4.22;1.67;;;;;;;;;;4969376;28;20090;-67
2023/07/25 02:20:53;;;;;;;5.95;1.90;;;;;;;;;;4979949;28;20071;-66
2023/07/25 02:23:22;;;;;;;6.55;2.00;;;;;;;;;;4978570;28;20137;-68
2023/07/25 02:25:49;;;;;;;5.72;2.13;;;;;;;;;;4972162;28;20578;-66
2023/07/25 02:28:16;;;;;;;4.43;1.60;;;;;;;;;;4974434;28;20058;-66
2023/07/25 02:30:42;;;;;;;3.00;1.40;;;;;;;;;;4974864;28;20070;-67
2023/07/25 02:33:13;;;;;;;3.33;1.38;;;;;;;;;;4976572;28;20054;-65
2023/07/25 02:35:40;;;;;;;2.70;1.52;;;;;;;;;;4958872;28;20150;-65
2023/07/25 02:38:07;;;;;;;5.20;1.85;;;;;;;;;;4977457;28;20354;-65
2023/07/25 02:40:34;;;;;;;8.85;2.00;;;;;;;;;;4969137;28;20062;-66
2023/07/25 02:43:03;;;;;;;8.07;2.03;;;;;;;;;;4979405;28;20058;-65
2023/07/25 02:45:29;;;;;;;8.73;1.80;;;;;;;;;;4973163;28;20172;-65
2023/07/25 02:47:56;;;;;;;3.72;1.75;;;;;;;;;;4976615;28;20069;-65
2023/07/25 02:50:25;;;;;;;4.40;1.63;;;;;;;;;;4972294;28;20081;-66
2023/07/25 02:53:14;;;;;;;5.00;1.73;;;;;;;;;;4978287;28;20058;-66
2023/07/25 02:55:44;;;;;;;3.08;1.55;;;;;;;;;;4957834;28;20182;-67
2023/07/25 02:58:12;;;;;;;3.55;1.40;;;;;;;;;;4976792;28;20058;-67
2023/07/25 03:00:39;;;;;;;3.75;1.75;;;;;;;;;;4970293;28;20128;-67
2023/07/25 03:03:07;;;;;;;4.60;1.80;;;;;;;;;;4991695;28;20065;-67
2023/07/25 03:05:36;;;;;;;;;;;;;;;;;;4992451;28;20182;-67
2023/07/25 03:08:03;;;;;;;3.78;1.58;;;;;;;;;;4996213;28;19932;-67
2023/07/25 03:10:30;;;;;;;6.93;1.65;;;;;;;;;;4988482;28;20054;-67
2023/07/25 03:12:56;;;;;;;6.60;1.50;;;;;;;;;;4979087;28;20055;-67
2023/07/25 03:15:23;;;;;;;4.68;1.77;;;;;;;;;;4986853;28;20061;-67
2023/07/25 03:17:50;;;;;;;6.32;1.88;;;;;;;;;;4983541;28;20054;-67
2023/07/25 03:20:18;;;;;;;8.15;2.35;;;;;;;;;;4972967;28;20054;-66
2023/07/25 03:22:46;;;;;;;4.90;1.80;;;;;;;;;;4971182;28;20165;-66
2023/07/25 03:25:13;;;;;;;3.38;1.67;;;;;;;;;;4973107;28;20066;-66
2023/07/25 03:27:39;;;;;;;4.93;1.55;;;;;;;;;;4975839;28;20062;-66
2023/07/25 03:30:09;;;;;;;4.45;1.55;;;;;;;;;;4977111;28;20062;-66
2023/07/25 03:32:36;;;;;;;3.58;1.48;;;;;;;;;;4971226;28;20131;-67
2023/07/25 03:35:03;;;;;;;6.30;1.80;;;;;;;;;;4972612;28;20054;-66
2023/07/25 03:37:30;;;;;;;6.20;2.05;;;;;;;;;;4976879;28;20115;-66
2023/07/25 03:39:58;;;;;;;3.45;1.73;;;;;;;;;;4976923;28;20058;-67
2023/07/25 03:42:40;;;;;;;4.20;1.88;;;;;;;;;;4975238;28;20051;-68
2023/07/25 03:45:10;;;;;;;4.22;1.70;;;;;;;;;;4948478;28;20054;-67
2023/07/25 03:47:36;;;;;;;3.33;1.48;;;;;;;;;;4973711;28;20046;-67
2023/07/25 03:50:04;;;;;;;4.00;1.50;;;;;;;;;;4979731;28;20061;-64
2023/07/25 03:52:30;;;;;;;3.92;1.65;;;;;;;;;;4972612;28;20061;-65
2023/07/25 03:55:01;;;;;;;4.88;2.22;;;;;;;;;;4968996;28;20062;-67
2023/07/25 03:57:28;;;;;;;5.95;2.17;;;;;;;;;;4980693;28;20057;-65
2023/07/25 03:59:54;;;;;;;6.10;1.83;;;;;;;;;;4978487;28;20065;-65
2023/07/25 04:02:21;;;;;;;4.43;1.98;;;;;;;;;;4986128;28;20049;-66
2023/07/25 04:04:50;;;;;;;3.85;1.70;;;;;;;;;;4991346;28;20141;-66
2023/07/25 04:07:17;;;;;;;;;;;;;;;;;;4998902;28;20073;-67
2023/07/25 04:09:44;;;;;;;5.43;1.98;;;;;;;;;;4981131;28;20401;-67
2023/07/25 04:12:12;;;;;;;7.00;1.83;;;;;;;;;;4982972;28;20046;-66
2023/07/25 04:14:41;;;;;;;5.47;2.10;;;;;;;;;;4966929;28;20081;-67
2023/07/25 04:17:09;;;;;;;6.15;2.03;;;;;;;;;;4978901;28;20061;-66
2023/07/25 04:19:37;;;;;;;4.68;1.80;;;;;;;;;;4978376;28;20181;-65
2023/07/25 04:22:04;;;;;;;4.57;1.98;;;;;;;;;;4980027;28;20127;-66
2023/07/25 04:24:30;;;;;;;7.93;2.13;;;;;;;;;;4966238;28;20055;-66
2023/07/25 04:26:59;;;;;;;5.60;2.08;;;;;;;;;;4980005;28;20139;-66
2023/07/25 04:29:27;;;;;;;4.95;1.80;;;;;;;;;;4979405;28;20062;-65
2023/07/25 04:31:54;;;;;;;4.32;2.00;;;;;;;;;;4979756;28;20158;-66
2023/07/25 04:34:24;;;;;;;3.38;2.00;;;;;;;;;;4972601;28;20054;-66
2023/07/25 04:36:51;;;;;;;10.68;4.30;;;;;;;;;;4978943;28;20050;-66
2023/07/25 04:39:18;;;;;;;19.08;8.07;;;;;;;;;;4978770;28;20077;-67
2023/07/25 04:41:45;;;;;;;24.27;8.85;;;;;;;;;;4979156;28;20061;-67
2023/07/25 04:44:12;;;;;;;9.30;5.05;;;;;;;;;;4973086;28;20053;-67
2023/07/25 04:46:40;;;;;;;6.63;2.70;;;;;;;;;;5045496;28;20059;-66
2023/07/25 04:49:11;;;;;;;5.05;2.63;;;;;;;;;;5076081;28;20056;-67
2023/07/25 04:51:38;;;;;;;4.50;2.08;;;;;;;;;;5074920;28;20082;-67
2023/07/25 04:54:08;;;;;;;5.53;2.38;;;;;;;;;;5071441;28;20107;-67
2023/07/25 04:56:35;;;;;;;6.65;1.92;;;;;;;;;;5070897;28;20310;-66
2023/07/25 04:59:02;;;;;;;4.47;1.90;;;;;;;;;;5077593;28;20047;-67
2023/07/25 05:01:28;;;;;;;6.35;2.33;;;;;;;;;;5081735;28;20071;-67
2023/07/25 05:03:57;;;;;;;7.22;2.38;;;;;;;;;;5063402;28;20505;-66
2023/07/25 05:06:24;;;;;;;5.60;2.38;;;;;;;;;;5066048;28;20051;-66
2023/07/25 05:08:53;;;;;;;8.52;2.80;;;;;;;;;;5057635;28;20052;-65
2023/07/25 05:11:20;;;;;;;8.25;2.42;;;;;;;;;;5070049;28;20144;-67
2023/07/25 05:13:46;;;;;;;14.27;5.78;;;;;;;;;;5064705;28;20146;-67
2023/07/25 05:16:19;;;;;;;11.70;3.60;;;;;;;;;;5091583;28;20068;-66
2023/07/25 05:18:47;;;;;;;8.25;2.17;;;;;;;;;;5074519;28;20062;-66
2023/07/25 05:21:16;;;;;;;7.15;2.15;;;;;;;;;;5061930;28;20139;-67
2023/07/25 05:23:42;;;;;;;7.43;2.22;;;;;;;;;;5074412;28;20341;-67
2023/07/25 05:26:09;;;;;;;8.88;2.90;;;;;;;;;;5026080;27;20043;-67
2023/07/25 05:28:36;;;;;;;9.05;2.63;;;;;;;;;;5068843;28;20397;-67
2023/07/25 05:31:07;;;;;;;6.70;2.22;;;;;;;;;;5078400;28;20062;-67
2023/07/25 05:33:34;;;;;;;48.80;22.95;;;;;;;;;;5076980;28;20478;-66
2023/07/25 05:36:04;;;;;;;17.63;6.15;;;;;;;;;;5078277;28;20052;-66
2023/07/25 05:38:32;;;;;;;7.55;2.58;;;;;;;;;;5073926;28;20060;-66
2023/07/25 05:40:58;;;;;;;9.65;2.42;;;;;;;;;;5078835;28;20131;-66
2023/07/25 05:43:25;;;;;;;10.48;2.53;;;;;;;;;;5079471;28;20083;-66
2023/07/25 05:45:52;;;;;;;6.00;2.10;;;;;;;;;;5074344;28;20147;-65
2023/07/25 05:48:20;;;;;;;7.18;2.42;;;;;;;;;;5068405;28;20079;-68
2023/07/25 05:50:50;;;;;;;4.32;2.00;;;;;;;;;;4976631;28;20050;-66
2023/07/25 05:53:17;;;;;;;6.38;1.92;;;;;;;;;;4979491;28;20054;-66
2023/07/25 05:55:46;;;;;;;7.97;2.50;;;;;;;;;;4973326;28;20065;-66
2023/07/25 05:58:15;;;;;;;15.15;3.17;;;;;;;;;;4977923;28;20067;-66
2023/07/25 06:00:41;;;;;;;5.97;2.45;;;;;;;;;;4975481;28;20050;-66
2023/07/25 06:03:11;;;;;;;4.07;2.05;;;;;;;;;;4990698;28;20054;-66
2023/07/25 06:05:38;;;;;;;7.03;2.00;;;;;;;;;;5012511;28;20057;-66
2023/07/25 06:08:05;;;;;;;4.75;1.77;;;;;;;;;;5001216;28;20121;-67
2023/07/25 06:10:32;;;;;;;8.25;2.20;;;;;;;;;;4970457;28;20081;-66
2023/07/25 06:13:03;;;;;;;9.27;3.33;;;;;;;;;;5042739;28;20052;-67
2023/07/25 06:15:30;;;;;;;6.63;1.98;;;;;;;;;;5077633;28;20079;-67
2023/07/25 06:17:56;;;;;;;20.25;5.93;;;;;;;;;;5026442;28;20065;-67
2023/07/25 06:20:23;;;;;;;9.35;2.53;;;;;;;;;;4970043;28;20086;-67
2023/07/25 06:22:52;;;;;;;5.93;1.65;;;;;;;;;;4976709;28;20111;-66
2023/07/25 06:25:19;;;;;;;8.48;2.15;;;;;;;;;;4972598;28;20054;-67
2023/07/25 06:27:46;;;;;;;4.97;1.63;;;;;;;;;;4978827;28;20082;-66
2023/07/25 06:30:15;;;;;;;7.20;1.83;;;;;;;;;;4978235;28;20066;-66
2023/07/25 06:32:41;;;;;;;;;;;;;;;;;;4973797;28;20062;-66
2023/07/25 06:35:12;;;;;;;8.80;2.42;;;;;;;;;;4965105;28;20360;-67
2023/07/25 06:37:39;;;;;;;6.47;1.65;;;;;;;;;;4978536;28;20268;-66
2023/07/25 06:40:09;;;;;;;8.35;1.67;;;;;;;;;;4977209;28;20159;-66
2023/07/25 06:42:35;;;;;;;3.47;1.40;;;;;;;;;;4969651;28;20368;-68
2023/07/25 06:45:02;;;;;;;9.02;2.08;;;;;;;;;;4973231;28;20074;-66
2023/07/25 06:47:31;;;;;;;12.18;1.88;;;;;;;;;;4977033;28;20401;-67
2023/07/25 06:49:58;;;;;;;9.43;1.50;;;;;;;;;;4975345;28;20051;-66
2023/07/25 06:52:24;;;;;;;6.50;1.73;;;;;;;;;;4969103;28;20320;-67
2023/07/25 06:54:51;;;;;;;5.82;1.50;;;;;;;;;;4971109;28;20492;-66
2023/07/25 06:57:21;;;;;;;11.65;1.88;;;;;;;;;;4978075;28;20054;-66
2023/07/25 06:59:48;;;;;;;7.68;1.92;;;;;;;;;;4978662;28;20070;-66
2023/07/25 07:02:15;;;;;;;8.02;1.45;;;;;;;;;;4982530;28;20156;-66
2023/07/25 07:04:46;;;;;;;11.98;2.15;;;;;;;;;;4960066;28;20061;-66
2023/07/25 07:07:13;;;;;;;11.23;4.85;;;;;;;;;;4980873;28;20074;-67
2023/07/25 07:09:40;;;;;;;11.77;3.20;;;;;;;;;;4979216;28;20505;-67
2023/07/25 07:12:07;;;;;;;7.50;3.50;;;;;;;;;;5004371;28;20123;-67
2023/07/25 07:14:34;;;;;;;5.00;1.80;;;;;;;;;;5067453;28;20303;-67
2023/07/25 07:17:01;;;;;;;8.80;1.70;;;;;;;;;;5078785;28;20158;-67
2023/07/25 07:19:28;;;;;;;5.32;1.50;;;;;;;;;;5078287;28;20051;-67
2023/07/25 07:21:56;;;;;;;4.30;1.45;;;;;;;;;;5080417;28;20090;-67
2023/07/25 07:24:23;;;;;;;7.60;1.80;;;;;;;;;;5075421;28;20071;-66
2023/07/25 07:26:49;;;;;;;6.90;1.27;;;;;;;;;;5084191;28;20138;-66
2023/07/25 07:29:16;;;;;;;6.68;1.60;;;;;;;;;;5082271;28;20067;-67
2023/07/25 07:31:43;;;;;;;5.15;1.58;;;;;;;;;;5082118;28;20470;-67
2023/07/25 07:34:10;;;;;;;6.07;1.77;;;;;;;;;;5043104;28;20062;-67
2023/07/25 07:36:37;;;;;;;6.57;1.60;;;;;;;;;;4972786;28;20058;-66
2023/07/25 07:39:05;;;;;;;4.90;1.48;;;;;;;;;;4980469;28;20062;-66
2023/07/25 07:41:32;;;;;;;5.63;1.15;;;;;;;;;;4978398;28;20137;-66
2023/07/25 07:43:59;;;;;;;6.85;1.65;;;;;;;;;;4967288;28;20043;-67
2023/07/25 07:46:27;;;;;;;7.25;1.10;;;;;;;;;;4972403;28;20054;-67
2023/07/25 07:48:54;;;;;;;4.85;1.40;;;;;;;;;;4981427;28;20073;-66
2023/07/25 07:51:21;;;;;;;10.43;1.48;;;;;;;;;;4980504;28;20128;-67
2023/07/25 07:53:48;;;;;;;5.53;1.17;;;;;;;;;;4977301;28;20370;-65
2023/07/25 07:56:20;;;;;;;3.35;1.00;;;;;;;;;;4968735;28;20127;-68
2023/07/25 07:58:47;;;;;;;5.88;1.20;;;;;;;;;;4978573;28;20066;-67
2023/07/25 08:01:15;;;;;;;3.67;0.90;;;;;;;;;;4980589;28;20061;-67
2023/07/25 08:03:41;;;;;;;5.18;1.05;;;;;;;;;;4997228;28;20066;-66
2023/07/25 08:06:10;;;;;;;6.50;1.38;;;;;;;;;;4996109;28;20140;-67
2023/07/25 08:08:37;;;;;;;;;;;;;;;;;;4997431;28;20427;-66
2023/07/25 08:11:03;;;;;;;7.03;2.38;;;;;;;;;;4996107;28;20363;-67
2023/07/25 08:13:32;;;;;;;5.28;1.73;;;;;;;;;;5066407;28;20052;-66
2023/07/25 08:15:59;;;;;;;9.55;1.20;;;;;;;;;;5077678;28;20079;-67
2023/07/25 08:18:26;;;;;;;3.22;1.10;;;;;;;;;;4987555;28;20070;-68
2023/07/25 08:20:57;;;;;;;4.55;0.88;;;;;;;;;;4979057;28;20054;-68
2023/07/25 08:23:24;;;;;;;1.70;0.80;;;;;;;;;;4980702;28;20055;-67
2023/07/25 08:25:53;;;;;;;3.38;0.75;;;;;;;;;;4976129;28;20099;-66
2023/07/25 08:28:20;;;;;;;7.30;0.90;;;;;;;;;;4975582;28;20416;-67
2023/07/25 08:30:48;;;;;;;6.82;1.48;;;;;;;;;;4977724;28;20086;-67
2023/07/25 08:33:19;;;;;;;1.98;0.70;;;;;;;;;;4980882;28;20076;-67
2023/07/25 08:35:47;;;;;;;4.80;1.00;;;;;;;;;;4975599;28;20047;-66
2023/07/25 08:38:17;;;;;;;5.93;0.93;;;;;;;;;;4980173;28;20066;-67
2023/07/25 08:40:44;;;;;;;4.45;0.85;;;;;;;;;;4976200;28;20050;-67
2023/07/25 08:43:13;;;;;;;8.65;1.17;;;;;;;;;;4982097;28;20093;-67
2023/07/25 08:45:42;;;;;;;1.33;0.60;;;;;;;;;;4965342;28;20145;-67
2023/07/25 08:48:13;;;;;;;5.03;0.70;;;;;;;;;;4978552;28;20066;-67
2023/07/25 08:50:43;;;;;;;6.25;0.93;;;;;;;;;;4971561;28;20084;-67
2023/07/25 08:53:12;;;;;;;3.40;1.02;;;;;;;;;;4979005;28;20056;-67
2023/07/25 08:55:40;;;;;;;3.40;0.65;;;;;;;;;;4974945;27;20066;-67
2023/07/25 08:58:07;;;;;;;5.50;1.10;;;;;;;;;;4980378;28;20187;-67
2023/07/25 09:00:34;;;;;;;2.05;0.65;;;;;;;;;;4971711;28;20195;-67
2023/07/25 09:03:02;;;;;;;2.67;0.60;;;;;;;;;;4992157;28;20084;-66
2023/07/25 09:05:31;;;;;;;1.15;0.40;;;;;;;;;;4994312;28;20042;-67
2023/07/25 09:07:59;;;;;;;3.55;0.90;;;;;;;;;;4998828;28;20057;-67
2023/07/25 09:10:26;;;;;;;2.17;0.80;;;;;;;;;;4993700;28;20065;-67
2023/07/25 09:12:54;;;;;;;2.72;0.55;;;;;;;;;;5040680;28;20048;-67
2023/07/25 09:15:20;;;;;;;3.22;0.77;;;;;;;;;;5074745;28;20060;-67
2023/07/25 09:17:47;;;;;;;3.75;0.70;;;;;;;;;;5081979;28;20375;-67
2023/07/25 09:20:15;;;;;;;1.13;0.60;;;;;;;;;;4992624;28;20581;-67
2023/07/25 09:22:47;;;;;;;1.05;0.50;;;;;;;;;;4971790;28;20954;-67
2023/07/25 09:25:15;;;;;;;3.60;0.57;;;;;;;;;;4973944;28;20050;-67
2023/07/25 09:27:45;;;;;;;4.53;1.30;;;;;;;;;;5012963;28;20184;-67
2023/07/25 09:30:14;;;;;;;2.15;0.60;;;;;;;;;;4979122;28;20284;-67
2023/07/25 09:32:46;;;;;;;1.48;0.70;;;;;;;;;;4977416;28;20042;-67
2023/07/25 09:35:13;;;;;;;2.53;0.50;;;;;;;;;;4972222;28;20062;-67
2023/07/25 09:37:39;;;;;;;0.30;0.30;;;;;;;;;;4978654;28;20066;-67
2023/07/25 09:40:11;;;;;;;1.30;0.60;;;;;;;;;;4977447;28;20295;-68
2023/07/25 09:42:41;;;;;;;1.73;0.50;;;;;;;;;;4970213;28;20127;-67
2023/07/25 09:45:10;;;;;;;3.40;0.60;;;;;;;;;;4974432;28;20065;-66
2023/07/25 09:47:37;;;;;;;1.67;0.57;;;;;;;;;;4962117;28;20054;-68
2023/07/25 09:50:05;;;;;;;2.88;0.70;;;;;;;;;;4958301;28;20059;-67
2023/07/25 09:52:39;;;;;;;5.68;0.90;;;;;;;;;;4951830;28;20063;-67
2023/07/25 09:55:10;;;;;;;0.90;0.50;;;;;;;;;;4956543;28;20062;-67
2023/07/25 09:57:37;;;;;;;2.90;0.55;;;;;;;;;;4973246;28;20050;-67
2023/07/25 10:00:09;;;;;;;6.15;0.73;;;;;;;;;;4977020;28;20111;-67
2023/07/25 10:02:37;;;;;;;4.25;0.57;;;;;;;;;;4979698;28;20061;-68
2023/07/25 10:05:05;;;;;;;3.85;0.60;;;;;;;;;;4991140;28;20054;-68
2023/07/25 10:07:35;;;;;;;3.03;0.60;;;;;;;;;;4997338;28;20073;-67
2023/07/25 10:10:05;;;;;;;0.40;0.40;;;;;;;;;;5000975;28;20121;-67
2023/07/25 10:12:34;;;;;;;0.60;0.43;;;;;;;;;;4975947;28;20069;-68
2023/07/25 10:15:01;;;;;;;1.25;0.50;;;;;;;;;;4957495;28;20046;-67
2023/07/25 10:17:28;;;;;;;2.38;0.60;;;;;;;;;;4977394;28;20133;-67
2023/07/25 10:19:56;;;;;;;2.15;0.60;;;;;;;;;;4976441;28;20058;-67
2023/07/25 10:22:35;;;;;;;3.00;0.50;;;;;;;;;;4971574;28;20097;-69
2023/07/25 10:25:03;;;;;;;1.10;0.47;;;;;;;;;;4970426;28;20058;-67
2023/07/25 10:27:30;;;;;;;6.72;0.73;;;;;;;;;;4977505;28;20081;-67
2023/07/25 10:30:01;;;;;;;1.83;0.60;;;;;;;;;;4977245;28;20054;-67
2023/07/25 10:32:44;;;;;;;2.88;0.60;;;;;;;;;;4971996;28;20054;-67
2023/07/25 10:35:11;;;;;;;3.25;0.60;;;;;;;;;;4967161;28;20050;-67
2023/07/25 10:37:45;;;;;;;4.75;0.50;;;;;;;;;;4982149;28;20074;-67
2023/07/25 10:40:16;;;;;;;3.83;0.70;;;;;;;;;;4976948;28;20065;-67
2023/07/25 10:42:58;;;;;;;3.03;0.60;;;;;;;;;;4976633;28;20054;-67
2023/07/25 10:45:43;;;;;;;;;;;;;;;;;;4974357;28;20058;-67
2023/07/25 10:48:30;;;;;;;1.17;0.65;;;;;;;;;;4977086;28;19930;-67
2023/07/25 10:50:58;;;;;;;1.77;0.63;;;;;;;;;;4978967;28;20058;-67
2023/07/25 10:53:25;;;;;;;4.75;0.75;;;;;;;;;;4983111;28;20095;-68
2023/07/25 10:56:15;;;;;;;1.42;0.60;;;;;;;;;;4975552;28;20121;-67
2023/07/25 10:59:02;;;;;;;1.50;0.60;;;;;;;;;;4975405;28;20050;-67
2023/07/25 11:01:34;;;;;;;2.00;0.60;;;;;;;;;;4977374;28;20058;-67
2023/07/25 11:04:27;;;;;;;2.20;0.50;;;;;;;;;;4975556;28;20050;-67
2023/07/25 11:06:58;;;;;;;0.47;0.47;;;;;;;;;;5006908;28;20050;-67
2023/07/25 11:09:26;;;;;;;1.67;0.57;;;;;;;;;;4980535;28;20101;-68
2023/07/25 11:11:54;;;;;;;1.73;0.57;;;;;;;;;;4975714;28;20077;-67
2023/07/25 11:14:24;;;;;;;3.53;0.68;;;;;;;;;;4967767;28;20065;-68
2023/07/25 11:16:53;;;;;;;0.55;0.38;;;;;;;;;;4975969;28;20050;-68
2023/07/25 11:19:27;;;;;;;1.85;0.60;;;;;;;;;;4975440;28;20070;-67
2023/07/25 11:21:54;;;;;;;2.92;0.60;;;;;;;;;;4978365;28;20073;-67
2023/07/25 11:24:21;;;;;;;2.85;0.50;;;;;;;;;;4971743;28;20121;-69
2023/07/25 11:26:50;;;;;;;2.97;0.60;;;;;;;;;;4977331;28;20070;-66
2023/07/25 11:29:18;;;;;;;2.17;0.65;;;;;;;;;;4976195;28;20054;-67
2023/07/25 11:31:47;;;;;;;2.47;0.55;;;;;;;;;;4975504;28;20055;-67
2023/07/25 11:34:17;;;;;;;;;;;;;;;;;;4973615;28;20058;-67
2023/07/25 11:36:46;;;;;;;0.98;0.52;;;;;;;;;;4973343;28;22442;-67
2023/07/25 11:39:14;;;;;;;3.55;0.50;;;;;;;;;;4979673;28;20034;-68
2023/07/25 11:41:44;;;;;;;5.30;0.70;;;;;;;;;;4983229;28;20057;-69
2023/07/25 11:44:23;;;;;;;1.45;0.52;;;;;;;;;;4962106;28;20066;-68
2023/07/25 11:46:54;;;;;;;0.93;0.50;;;;;;;;;;4979944;28;20054;-68
2023/07/25 11:49:22;;;;;;;2.33;0.55;;;;;;;;;;4977083;28;20054;-67
2023/07/25 11:51:50;;;;;;;3.88;0.40;;;;;;;;;;4977064;28;20173;-67
2023/07/25 11:54:20;;;;;;;3.97;0.77;;;;;;;;;;4967245;28;20115;-70
2023/07/25 11:56:47;;;;;;;0.35;0.35;;;;;;;;;;4973071;28;20065;-68
2023/07/25 11:59:14;;;;;;;1.00;0.70;;;;;;;;;;4975439;28;20058;-68
2023/07/25 12:01:41;;;;;;;14.52;8.02;;;;;;;;;;4979103;28;20131;-68
2023/07/25 12:04:17;;;;;;;2.65;1.00;;;;;;;;;;4984385;28;20053;-68
2023/07/25 12:06:44;;;;;;;3.97;1.45;;;;;;;;;;4971335;28;20140;-68
2023/07/25 12:09:12;;;;;;;2.10;0.70;;;;;;;;;;4975614;28;20054;-68
2023/07/25 12:11:45;;;;;;;2.83;0.60;;;;;;;;;;4978032;28;20047;-67
2023/07/25 12:14:14;;;;;;;3.22;0.60;;;;;;;;;;4974929;28;20070;-68
2023/07/25 12:16:44;;;;;;;2.65;0.60;;;;;;;;;;4972586;28;20046;-69
2023/07/25 12:19:12;;;;;;;0.88;0.63;;;;;;;;;;4981679;28;20190;-68
2023/07/25 12:21:41;;;;;;;6.30;0.80;;;;;;;;;;4978285;28;20051;-68
2023/07/25 12:24:18;;;;;;;4.82;1.35;;;;;;;;;;4975883;28;20128;-68
2023/07/25 12:26:46;;;;;;;1.85;0.60;;;;;;;;;;4979381;28;20065;-68
2023/07/25 12:29:14;;;;;;;3.33;1.08;;;;;;;;;;4979738;28;20150;-68
2023/07/25 12:31:41;;;;;;;2.33;0.75;;;;;;;;;;4979826;28;20073;-68
2023/07/25 12:34:08;;;;;;;2.17;0.73;;;;;;;;;;4967139;28;20058;-68
2023/07/25 12:36:35;;;;;;;2.63;0.80;;;;;;;;;;5005452;28;20081;-68
2023/07/25 12:39:02;;;;;;;3.00;0.80;;;;;;;;;;4978686;28;20127;-68
2023/07/25 12:41:33;;;;;;;6.45;0.80;;;;;;;;;;4979184;28;20057;-68
2023/07/25 12:44:00;;;;;;;0.73;0.50;;;;;;;;;;4977994;28;20054;-69
2023/07/25 12:46:27;;;;;;;1.08;0.60;;;;;;;;;;4988045;28;20050;-69
2023/07/25 12:48:58;;;;;;;0.95;0.40;;;;;;;;;;4979394;28;20053;-68
2023/07/25 12:51:25;;;;;;;3.25;0.60;;;;;;;;;;4982933;28;20130;-69
2023/07/25 12:53:52;;;;;;;5.13;0.80;;;;;;;;;;4971049;28;20134;-69
2023/07/25 12:56:25;;;;;;;5.45;0.70;;;;;;;;;;4975631;28;20053;-68
2023/07/25 12:58:54;;;;;;;2.47;1.10;;;;;;;;;;4978645;28;20057;-70
2023/07/25 13:01:25;;;;;;;1.48;0.52;;;;;;;;;;4961055;28;20050;-68
2023/07/25 13:03:52;;;;;;;2.05;0.60;;;;;;;;;;4991868;28;20112;-69
2023/07/25 13:06:19;;;;;;;1.65;0.60;;;;;;;;;;4971497;28;20054;-69
2023/07/25 13:08:48;;;;;;;3.37;0.70;;;;;;;;;;5013252;28;20046;-68
2023/07/25 13:11:15;;;;;;;1.75;0.65;;;;;;;;;;4977574;28;20392;-69
2023/07/25 13:13:42;;;;;;;3.78;0.98;;;;;;;;;;4978071;28;20054;-69
2023/07/25 13:16:17;;;;;;;3.03;0.90;;;;;;;;;;4966444;28;20106;-69
2023/07/25 13:18:47;;;;;;;3.42;0.70;;;;;;;;;;4972648;28;20050;-69
2023/07/25 13:21:14;;;;;;;2.75;0.68;;;;;;;;;;4977489;28;20062;-68
2023/07/25 13:23:41;;;;;;;5.85;0.80;;;;;;;;;;4980880;28;20050;-70
2023/07/25 13:26:07;;;;;;;2.50;0.70;;;;;;;;;;4973574;28;20078;-69
2023/07/25 13:28:34;;;;;;;4.63;1.25;;;;;;;;;;4974705;27;20073;-68
2023/07/25 13:31:01;;;;;;;1.27;0.73;;;;;;;;;;4982102;28;20045;-69
2023/07/25 13:33:30;;;;;;;6.70;3.20;;;;;;;;;;4976698;28;20065;-68
2023/07/25 13:35:56;;;;;;;7.00;1.48;;;;;;;;;;4976045;28;20127;-69
2023/07/25 13:38:23;;;;;;;5.43;1.02;;;;;;;;;;4971964;28;20058;-70
2023/07/25 13:40:55;;;;;;;1.52;0.70;;;;;;;;;;4977676;28;20085;-69
2023/07/25 13:43:22;;;;;;;2.42;0.57;;;;;;;;;;4982545;28;20054;-69
2023/07/25 13:45:57;;;;;;;0.75;0.50;;;;;;;;;;4964725;28;20062;-69
2023/07/25 13:48:28;;;;;;;2.53;0.50;;;;;;;;;;4973619;28;20054;-70
2023/07/25 13:50:58;;;;;;;1.77;0.45;;;;;;;;;;4982565;28;20050;-70
2023/07/25 13:53:26;;;;;;;1.42;0.60;;;;;;;;;;5010435;28;20135;-69
2023/07/25 13:55:53;;;;;;;3.53;0.60;;;;;;;;;;4911361;28;20057;-69
2023/07/25 13:58:24;;;;;;;2.38;0.60;;;;;;;;;;4919633;28;20052;-69
2023/07/25 14:00:53;;;;;;;2.53;0.52;;;;;;;;;;4917995;28;20154;-69
2023/07/25 14:03:20;;;;;;;0.60;0.40;;;;;;;;;;4950832;28;20061;-69
2023/07/25 14:05:47;;;;;;;2.00;0.50;;;;;;;;;;4945502;28;20058;-69
2023/07/25 14:08:25;;;;;;;0.85;0.40;;;;;;;;;;4975973;28;20061;-69
2023/07/25 14:10:53;;;;;;;1.80;0.50;;;;;;;;;;4995432;28;20057;-70
2023/07/25 14:13:23;;;;;;;1.60;0.50;;;;;;;;;;4977118;28;20046;-69
2023/07/25 14:15:52;;;;;;;1.35;0.50;;;;;;;;;;4954368;28;20054;-69
2023/07/25 14:18:20;;;;;;;3.00;0.70;;;;;;;;;;4974270;28;20069;-67
2023/07/25 14:20:50;;;;;;;0.88;0.40;;;;;;;;;;4975380;28;20950;-68
2023/07/25 14:23:20;;;;;;;0.75;0.40;;;;;;;;;;4978643;28;20066;-68
2023/07/25 14:25:50;;;;;;;1.73;0.60;;;;;;;;;;4980725;28;20133;-67
2023/07/25 14:28:25;;;;;;;1.45;0.40;;;;;;;;;;4979607;28;20073;-67
2023/07/25 14:30:52;;;;;;;5.03;0.50;;;;;;;;;;4977133;28;20058;-68
2023/07/25 14:33:20;;;;;;;1.17;0.82;;;;;;;;;;4975664;28;20107;-69
2023/07/25 14:35:47;;;;;;;2.42;1.05;;;;;;;;;;4971307;28;20073;-68
2023/07/25 14:38:24;;;;;;;3.38;1.27;;;;;;;;;;4978121;28;20058;-67
2023/07/25 14:40:53;;;;;;;3.72;0.50;;;;;;;;;;4976834;28;20061;-68
2023/07/25 14:43:23;;;;;;;4.20;0.75;;;;;;;;;;4979012;28;20054;-70
2023/07/25 14:45:49;;;;;;;1.27;0.47;;;;;;;;;;4979788;28;20054;-69
2023/07/25 14:48:17;;;;;;;0.43;0.40;;;;;;;;;;4978571;28;20054;-67
2023/07/25 14:50:44;;;;;;;1.98;0.60;;;;;;;;;;4970134;28;20061;-69
2023/07/25 14:53:11;;;;;;;1.02;0.43;;;;;;;;;;4977201;28;20061;-68
2023/07/25 14:55:42;;;;;;;1.95;0.40;;;;;;;;;;4971683;28;20071;-68